Arbor Vitae, Wisconsin
Current Conditions -  °F | °C
As of 3:55 PM on Monday 20 Oct 2014 (Local Time) from KARV Reporting Station
Overcast Overcast  
Wind Chill:   Ceiling: 3400
Heat Index:   Visibility: 10mi
Dew Point:   Wind: 10mph
Humidity: 82%   Direction: 350°N
Pressure: 29.96"   Gusts: NA
Location:  45.9553°N, 89.6779°W
Report Text: KARV 202055Z AUTO 35009KT 10SM BKN034 OVC044 08/05 A2996 RMK AO2 T00820053
Loading
Personal Weather Stations






























Interactive Weather Map
Tropical Storm Tracking
New forecast layout! Learn more

10-Day Weather Forecast

Advertisements
Track Severe Weather on mobile